createdAt,value
2019-04-25T00:02:36.715Z,25.83
2019-04-25T00:05:11.632Z,26.33
2019-04-25T00:07:43.856Z,24.97
2019-04-25T00:10:15.631Z,26.70
2019-04-25T00:12:48.065Z,24.73
2019-04-25T00:15:19.685Z,26.40
2019-04-25T00:17:52.197Z,24.73
2019-04-25T00:20:24.191Z,25.00
2019-04-25T00:23:04.389Z,26.17
2019-04-25T00:25:48.329Z,24.10
2019-04-25T00:28:21.636Z,26.83
2019-04-25T00:30:53.188Z,24.93
2019-04-25T00:33:25.349Z,24.87
2019-04-25T00:35:57.992Z,23.53
2019-04-25T00:38:31.853Z,25.67
2019-04-25T00:41:04.472Z,26.33
2019-04-25T00:43:37.027Z,25.13
2019-04-25T00:46:08.690Z,24.43
2019-04-25T00:48:44.189Z,25.93
2019-04-25T00:51:16.113Z,24.30
2019-04-25T00:53:48.085Z,26.27
2019-04-25T00:56:20.186Z,27.90
2019-04-25T00:59:11.799Z,26.10
2019-04-25T01:02:09.260Z,23.93
2019-04-25T01:04:41.974Z,25.57
2019-04-25T01:07:13.946Z,23.97
2019-04-25T01:09:45.791Z,22.10
2019-04-25T01:12:18.286Z,26.30
2019-04-25T01:14:50.454Z,24.00
2019-04-25T01:17:23.589Z,27.50
2019-04-25T01:19:58.009Z,25.13
2019-04-25T01:22:28.987Z,25.40
2019-04-25T01:25:01.393Z,24.43
2019-04-25T01:27:33.296Z,24.73
2019-04-25T01:30:06.137Z,26.50
2019-04-25T01:32:39.383Z,25.47
2019-04-25T01:35:36.406Z,25.23
2019-04-25T01:38:25.364Z,23.93
2019-04-25T01:41:16.704Z,24.97
2019-04-25T01:44:01.992Z,27.03
2019-04-25T01:46:34.345Z,24.70
2019-04-25T01:49:06.082Z,23.90
2019-04-25T01:51:38.028Z,22.60
2019-04-25T01:54:09.750Z,24.40
2019-04-25T01:56:41.794Z,24.47
2019-04-25T01:59:13.772Z,24.53
2019-04-25T02:01:46.597Z,24.90
2019-04-25T02:04:17.772Z,25.20
2019-04-25T02:06:51.467Z,23.83
2019-04-25T02:09:23.311Z,23.03
2019-04-25T02:12:08.612Z,23.13
2019-04-25T02:14:40.137Z,25.00
2019-04-25T02:17:11.502Z,23.83
2019-04-25T02:19:44.119Z,25.10
2019-04-25T02:22:15.734Z,26.73
2019-04-25T02:24:47.700Z,22.63
2019-04-25T02:27:19.313Z,22.67
2019-04-25T02:29:50.714Z,23.03
2019-04-25T02:32:25.647Z,24.40
2019-04-25T02:35:00.497Z,23.53
2019-04-25T02:37:30.892Z,23.50
2019-04-25T02:40:06.681Z,24.40
2019-04-25T02:42:36.790Z,23.00
2019-04-25T02:45:25.509Z,22.77
2019-04-25T02:48:14.227Z,24.47
2019-04-25T02:51:01.207Z,22.97
2019-04-25T02:53:37.299Z,23.77
2019-04-25T02:56:27.594Z,22.27
2019-04-25T02:58:44.290Z,22.73
2019-04-25T03:01:22.669Z,22.10
2019-04-25T03:03:54.339Z,21.97
2019-04-25T03:06:25.147Z,22.63
2019-04-25T03:08:57.789Z,22.13
2019-04-25T03:11:34.560Z,23.37
2019-04-25T03:14:07.131Z,23.17
2019-04-25T03:16:38.515Z,24.37
2019-04-25T03:19:29.290Z,21.97
2019-04-25T03:22:06.305Z,22.57
2019-04-25T03:24:36.438Z,23.20
2019-04-25T03:27:09.288Z,22.80
2019-04-25T03:29:41.829Z,21.77
2019-04-25T03:32:18.757Z,20.90
2019-04-25T03:34:46.627Z,20.53
2019-04-25T03:37:18.692Z,18.93
2019-04-25T03:39:50.353Z,21.17
2019-04-25T03:42:21.904Z,18.83
2019-04-25T03:44:53.827Z,21.30
2019-04-25T03:47:25.806Z,25.10
2019-04-25T03:49:58.125Z,21.87
2019-04-25T03:52:31.024Z,20.00
2019-04-25T03:55:04.661Z,19.87
2019-04-25T03:57:35.467Z,21.33
2019-04-25T04:00:07.525Z,18.83
2019-04-25T04:02:39.751Z,23.00
2019-04-25T04:05:13.568Z,21.37
2019-04-25T04:07:45.046Z,21.93
2019-04-25T04:10:16.921Z,20.50
2019-04-25T04:12:48.552Z,21.00
2019-04-25T04:15:20.828Z,21.80
2019-04-25T04:18:02.118Z,23.87
2019-04-25T04:20:49.650Z,28.57
2019-04-25T04:23:33.254Z,25.27
2019-04-25T04:26:06.219Z,25.60
2019-04-25T04:28:38.907Z,24.80
2019-04-25T04:31:15.439Z,25.40
2019-04-25T04:33:47.031Z,23.37
2019-04-25T04:36:19.017Z,22.77
2019-04-25T04:38:50.733Z,23.57
2019-04-25T04:41:22.050Z,23.03
2019-04-25T04:43:54.139Z,23.93
2019-04-25T04:46:25.828Z,22.13
2019-04-25T04:48:57.968Z,23.03
2019-04-25T04:51:29.289Z,21.40
2019-04-25T04:54:00.915Z,22.83
2019-04-25T04:56:34.094Z,22.17
2019-04-25T04:59:05.912Z,23.43
2019-04-25T05:01:39.714Z,22.37
2019-04-25T05:04:19.080Z,23.20
2019-04-25T05:07:09.559Z,23.37
2019-04-25T05:09:41.001Z,22.50
2019-04-25T05:12:13.437Z,25.13
2019-04-25T05:14:46.300Z,23.30
2019-04-25T05:17:18.421Z,23.57
2019-04-25T05:19:50.325Z,22.77
2019-04-25T05:22:22.893Z,23.53
2019-04-25T05:24:56.439Z,23.33
2019-04-25T05:27:37.125Z,21.00
2019-04-25T05:30:00.591Z,21.03
2019-04-25T05:32:32.201Z,24.10
2019-04-25T05:35:04.410Z,20.87
2019-04-25T05:37:36.088Z,25.50
2019-04-25T05:40:07.746Z,20.33
2019-04-25T05:42:57.426Z,23.30
2019-04-25T05:45:29.910Z,20.80
2019-04-25T05:48:01.478Z,21.20
2019-04-25T05:50:33.900Z,20.90
2019-04-25T05:53:06.063Z,21.20
2019-04-25T05:55:38.112Z,23.27
2019-04-25T05:58:09.632Z,21.67
2019-04-25T06:00:41.666Z,23.20
2019-04-25T06:03:13.765Z,22.20
2019-04-25T06:05:45.378Z,22.03
2019-04-25T06:08:19.346Z,22.53
2019-04-25T06:11:05.578Z,21.40
2019-04-25T06:14:00.443Z,22.37
2019-04-25T06:16:35.677Z,21.63
2019-04-25T06:19:34.001Z,21.47
2019-04-25T06:22:07.432Z,22.83
2019-04-25T06:24:57.706Z,23.57
2019-04-25T06:27:44.738Z,23.60
2019-04-25T06:30:25.886Z,22.50
2019-04-25T06:32:58.761Z,24.37
2019-04-25T06:35:30.150Z,23.00
2019-04-25T06:38:01.418Z,22.60
2019-04-25T06:40:34.522Z,24.00
2019-04-25T06:43:06.921Z,21.83
2019-04-25T06:46:14.330Z,21.33
2019-04-25T06:49:13.449Z,21.13
2019-04-25T06:51:52.090Z,20.53
2019-04-25T06:54:25.417Z,22.43
2019-04-25T06:56:57.192Z,22.23
2019-04-25T06:59:28.876Z,20.60
2019-04-25T07:02:00.750Z,19.90
2019-04-25T07:04:33.960Z,20.83
2019-04-25T07:07:12.421Z,20.43
2019-04-25T07:09:40.235Z,21.17
2019-04-25T07:12:14.310Z,20.30
2019-04-25T07:14:45.951Z,21.03
2019-04-25T07:17:17.910Z,20.57
2019-04-25T07:19:50.696Z,21.53
2019-04-25T07:22:23.822Z,21.20
2019-04-25T07:24:55.379Z,21.40
2019-04-25T07:27:44.718Z,19.97
2019-04-25T07:30:45.466Z,20.83
2019-04-25T07:33:13.807Z,19.50
2019-04-25T07:35:45.805Z,19.70
2019-04-25T07:38:16.870Z,20.10
2019-04-25T07:40:48.459Z,17.03
2019-04-25T07:43:20.022Z,17.60
2019-04-25T07:45:53.421Z,17.60
2019-04-25T07:48:26.669Z,16.60
2019-04-25T07:50:58.048Z,15.93
2019-04-25T07:53:30.704Z,15.97
2019-04-25T07:56:04.236Z,17.30
2019-04-25T07:58:50.347Z,16.63
2019-04-25T08:01:16.643Z,16.00
2019-04-25T08:03:48.432Z,16.00
2019-04-25T08:06:22.128Z,14.83
2019-04-25T08:08:54.578Z,14.83
2019-04-25T08:11:26.119Z,16.50
2019-04-25T08:14:34.203Z,15.80
2019-04-25T08:17:06.705Z,15.73
2019-04-25T08:19:50.510Z,15.70
2019-04-25T08:22:23.397Z,16.37
2019-04-25T08:24:55.728Z,16.93
2019-04-25T08:27:27.333Z,14.27
2019-04-25T08:30:04.242Z,15.87
2019-04-25T08:32:36.394Z,15.87
2019-04-25T08:35:08.618Z,15.30
2019-04-25T08:37:40.771Z,17.00
2019-04-25T08:40:13.695Z,15.67
2019-04-25T08:42:45.128Z,15.70
2019-04-25T08:45:17.719Z,17.23
2019-04-25T08:47:49.710Z,15.90
2019-04-25T08:50:33.195Z,16.40
2019-04-25T08:53:04.004Z,15.60
2019-04-25T08:55:57.575Z,15.30
2019-04-25T08:59:07.901Z,14.70
2019-04-25T09:01:56.981Z,15.03
2019-04-25T09:04:54.069Z,16.07
2019-04-25T09:07:29.493Z,15.60
2019-04-25T09:10:04.432Z,15.40
2019-04-25T09:12:44.234Z,14.30
2019-04-25T09:15:27.312Z,15.43
2019-04-25T09:18:04.355Z,15.43
2019-04-25T09:20:40.015Z,16.93
2019-04-25T09:23:10.185Z,15.10
2019-04-25T09:25:44.498Z,14.98
2019-04-25T09:28:16.845Z,14.65
2019-04-25T09:30:49.137Z,16.40
2019-04-25T09:33:21.164Z,15.15
2019-04-25T09:35:55.930Z,15.95
2019-04-25T09:38:28.292Z,14.50
2019-04-25T09:41:04.687Z,15.85
2019-04-25T09:43:37.726Z,15.28
2019-04-25T09:46:15.243Z,14.50
2019-04-25T09:49:06.410Z,14.25
2019-04-25T09:51:54.515Z,15.40
2019-04-25T09:54:45.260Z,14.10
2019-04-25T09:57:36.427Z,15.32
2019-04-25T10:00:27.758Z,15.43
2019-04-25T10:02:59.909Z,15.38
2019-04-25T10:05:35.079Z,15.40
2019-04-25T10:08:07.570Z,13.85
2019-04-25T10:10:42.504Z,14.28
2019-04-25T10:13:14.235Z,15.80
2019-04-25T10:15:56.033Z,14.93
2019-04-25T10:18:27.432Z,14.53
2019-04-25T10:20:59.662Z,14.65
2019-04-25T10:23:34.138Z,15.10
2019-04-25T10:26:19.947Z,16.30
2019-04-25T10:28:55.239Z,14.43
2019-04-25T10:31:30.029Z,15.35
2019-04-25T10:34:03.722Z,14.07
2019-04-25T10:36:35.565Z,13.80
2019-04-25T10:39:11.180Z,14.53
2019-04-25T10:41:44.511Z,15.08
2019-04-25T10:44:15.519Z,15.32
2019-04-25T10:46:48.468Z,13.50
2019-04-25T10:49:20.846Z,14.53
2019-04-25T10:51:53.420Z,13.50
2019-04-25T10:54:26.599Z,13.40
2019-04-25T10:56:59.096Z,13.90
2019-04-25T10:59:31.593Z,14.60
2019-04-25T11:02:04.010Z,14.30
2019-04-25T11:04:47.037Z,14.05
2019-04-25T11:07:18.303Z,13.13
2019-04-25T11:09:51.286Z,13.43
2019-04-25T11:12:24.391Z,13.22
2019-04-25T11:14:56.978Z,14.53
2019-04-25T11:17:29.269Z,20.65
2019-04-25T11:20:01.191Z,13.80
2019-04-25T11:22:34.215Z,13.83
2019-04-25T11:25:06.903Z,14.28
2019-04-25T11:27:39.112Z,14.38
2019-04-25T11:30:11.666Z,13.53
2019-04-25T11:32:45.768Z,15.48
2019-04-25T11:35:17.473Z,13.70
2019-04-25T11:37:50.539Z,14.25
2019-04-25T11:40:31.554Z,14.13
2019-04-25T11:43:04.310Z,14.93
2019-04-25T11:45:36.993Z,14.63
2019-04-25T11:48:08.833Z,13.72
2019-04-25T11:50:44.308Z,54.73
2019-04-25T11:53:14.960Z,14.10
2019-04-25T11:55:48.037Z,13.50
2019-04-25T11:58:18.951Z,15.80
2019-04-25T12:00:50.968Z,13.88
2019-04-25T12:03:24.551Z,15.03
2019-04-25T12:05:56.074Z,14.90
2019-04-25T12:08:27.409Z,15.50
2019-04-25T12:10:59.122Z,15.78
2019-04-25T12:13:31.545Z,13.90
2019-04-25T12:16:04.132Z,15.50
2019-04-25T12:18:36.314Z,15.43
2019-04-25T12:21:07.841Z,15.00
2019-04-25T12:23:40.441Z,15.35
2019-04-25T12:26:11.841Z,17.02
2019-04-25T12:28:43.640Z,14.75
2019-04-25T12:31:15.628Z,14.47
2019-04-25T12:33:48.672Z,14.47
2019-04-25T12:36:20.014Z,15.10
2019-04-25T12:38:52.080Z,15.13
2019-04-25T12:41:23.798Z,15.03
2019-04-25T12:44:16.200Z,14.05
2019-04-25T12:46:48.507Z,14.28
2019-04-25T12:49:21.007Z,15.20
2019-04-25T12:51:52.721Z,14.35
2019-04-25T12:54:24.962Z,14.75
2019-04-25T12:56:57.268Z,15.13
2019-04-25T12:59:28.791Z,14.23
2019-04-25T13:02:00.713Z,14.47
2019-04-25T13:04:33.199Z,13.55
2019-04-25T13:07:06.554Z,15.00
2019-04-25T13:09:37.985Z,15.23
2019-04-25T13:12:08.863Z,14.63
2019-04-25T13:14:40.726Z,13.75
2019-04-25T13:17:13.630Z,13.03
2019-04-25T13:19:45.083Z,13.90
2019-04-25T13:22:16.564Z,14.68
2019-04-25T13:24:47.960Z,13.98
2019-04-25T13:27:35.250Z,15.93
2019-04-25T13:30:29.306Z,15.58
2019-04-25T13:33:18.393Z,15.85
2019-04-25T13:35:56.263Z,16.07
2019-04-25T13:38:40.286Z,16.60
2019-04-25T13:41:29.849Z,16.00
2019-04-25T13:44:12.314Z,16.00
2019-04-25T13:46:44.945Z,15.43
2019-04-25T13:49:17.243Z,15.53
2019-04-25T13:51:49.646Z,14.83
2019-04-25T13:54:22.348Z,15.63
2019-04-25T13:56:54.774Z,16.90
2019-04-25T13:59:26.773Z,15.37
2019-04-25T14:01:59.166Z,15.27
2019-04-25T14:04:31.448Z,15.33
2019-04-25T14:07:03.486Z,13.28
2019-04-25T14:09:35.583Z,15.63
2019-04-25T14:12:09.145Z,14.98
2019-04-25T14:14:41.651Z,16.20
2019-04-25T14:17:31.703Z,15.48
2019-04-25T14:20:31.442Z,14.68
2019-04-25T14:23:03.543Z,13.90
2019-04-25T14:25:35.335Z,14.58
2019-04-25T14:28:08.201Z,15.35
2019-04-25T14:30:40.233Z,15.32
2019-04-25T14:33:13.567Z,15.93
2019-04-25T14:35:45.111Z,19.77
2019-04-25T14:38:16.226Z,15.90
2019-04-25T14:40:47.162Z,14.87
2019-04-25T14:43:18.013Z,15.25
2019-04-25T14:45:48.894Z,16.00
2019-04-25T14:48:20.451Z,15.68
2019-04-25T14:50:51.864Z,15.70
2019-04-25T14:53:24.196Z,15.63
2019-04-25T14:56:11.334Z,14.93
2019-04-25T14:58:43.990Z,15.87
2019-04-25T15:01:17.322Z,15.67
2019-04-25T15:03:49.137Z,16.40
2019-04-25T15:06:20.852Z,16.47
2019-04-25T15:08:52.562Z,15.50
2019-04-25T15:11:24.580Z,16.13
2019-04-25T15:13:56.226Z,15.77
2019-04-25T15:16:27.963Z,17.23
2019-04-25T15:18:59.760Z,16.60
2019-04-25T15:21:31.884Z,16.23
2019-04-25T15:24:03.405Z,15.70
2019-04-25T15:26:36.793Z,14.80
2019-04-25T15:29:07.947Z,14.83
2019-04-25T15:31:38.709Z,14.53
2019-04-25T15:34:10.732Z,14.80
2019-04-25T15:37:03.901Z,14.93
2019-04-25T15:39:49.950Z,13.53
2019-04-25T15:42:35.207Z,14.47
2019-04-25T15:45:32.641Z,14.80
2019-04-25T15:48:05.418Z,14.60
2019-04-25T15:50:37.041Z,15.93
2019-04-25T15:53:08.723Z,14.67
2019-04-25T15:55:40.776Z,15.30
2019-04-25T15:58:12.545Z,40.77
2019-04-25T16:00:44.056Z,14.67
2019-04-25T16:03:16.684Z,14.90
2019-04-25T16:05:48.383Z,13.87
2019-04-25T16:08:20.032Z,14.73
2019-04-25T16:10:52.290Z,14.60
2019-04-25T16:13:25.942Z,14.47
2019-04-25T16:15:58.961Z,14.30
2019-04-25T16:18:31.575Z,14.90
2019-04-25T16:21:05.828Z,14.37
2019-04-25T16:23:37.161Z,14.40
2019-04-25T16:26:11.044Z,14.13
2019-04-25T16:28:43.313Z,13.53
2019-04-25T16:31:18.461Z,13.40
2019-04-25T16:33:50.195Z,15.43
2019-04-25T16:36:22.703Z,14.73
2019-04-25T16:38:55.120Z,14.17
2019-04-25T16:41:27.577Z,15.50
2019-04-25T16:44:07.236Z,15.77
2019-04-25T16:46:39.951Z,14.93
2019-04-25T16:49:12.465Z,14.60
2019-04-25T16:51:44.527Z,14.30
2019-04-25T16:54:16.784Z,16.50
2019-04-25T16:56:48.603Z,14.00
2019-04-25T16:59:21.476Z,12.83
2019-04-25T17:01:53.390Z,14.17
2019-04-25T17:04:25.345Z,15.47
2019-04-25T17:06:57.387Z,14.60
2019-04-25T17:09:30.566Z,14.03
2019-04-25T17:12:05.881Z,14.50
2019-04-25T17:14:56.599Z,14.27
2019-04-25T17:17:37.871Z,13.80
2019-04-25T17:20:29.752Z,15.57
2019-04-25T17:23:02.377Z,15.10
2019-04-25T17:25:35.082Z,16.57
2019-04-25T17:28:07.501Z,15.70
2019-04-25T17:30:40.496Z,15.80
2019-04-25T17:33:40.121Z,16.00
2019-04-25T17:36:19.761Z,16.07
2019-04-25T17:39:02.123Z,16.97
2019-04-25T17:41:34.355Z,18.37
2019-04-25T17:44:09.343Z,17.27
2019-04-25T17:46:44.027Z,16.33
2019-04-25T17:49:15.633Z,17.07
2019-04-25T17:51:47.690Z,17.70
2019-04-25T17:54:19.045Z,19.50
2019-04-25T17:56:50.711Z,18.17
2019-04-25T17:59:21.710Z,17.30
2019-04-25T18:01:54.397Z,18.83
2019-04-25T18:04:26.030Z,17.23
2019-04-25T18:06:58.122Z,17.57
2019-04-25T18:09:29.870Z,18.67
2019-04-25T18:12:02.199Z,16.73
2019-04-25T18:14:34.057Z,18.17
2019-04-25T18:17:07.791Z,17.37
2019-04-25T18:19:49.522Z,17.00
2019-04-25T18:22:43.404Z,17.67
2019-04-25T18:25:35.637Z,16.73
2019-04-25T18:28:35.414Z,18.40
2019-04-25T18:31:08.686Z,19.80
2019-04-25T18:33:41.737Z,20.17
2019-04-25T18:36:32.522Z,19.30
2019-04-25T18:39:29.162Z,19.20
2019-04-25T18:42:18.946Z,22.83
2019-04-25T18:44:51.180Z,19.60
2019-04-25T18:47:23.655Z,19.60
2019-04-25T18:49:57.074Z,21.40
2019-04-25T18:52:47.140Z,21.40
2019-04-25T18:55:26.606Z,20.27
2019-04-25T18:58:23.808Z,20.60
2019-04-25T19:01:31.150Z,20.80
2019-04-25T19:04:17.787Z,19.43
2019-04-25T19:06:56.714Z,20.10
2019-04-25T19:09:24.581Z,20.17
2019-04-25T19:11:56.409Z,22.03
2019-04-25T19:14:31.836Z,21.30
2019-04-25T19:17:05.038Z,19.93
2019-04-25T19:19:37.028Z,21.13
2019-04-25T19:22:08.983Z,20.07
2019-04-25T19:24:43.542Z,21.47
2019-04-25T19:27:23.675Z,18.07
2019-04-25T19:29:49.154Z,19.37
2019-04-25T19:32:23.798Z,18.93
2019-04-25T19:34:57.079Z,18.60
2019-04-25T19:37:30.964Z,18.60
2019-04-25T19:40:19.278Z,18.77
2019-04-25T19:42:55.438Z,17.73
2019-04-25T19:45:27.102Z,18.67
2019-04-25T19:47:59.486Z,20.03
2019-04-25T19:50:32.106Z,19.67
2019-04-25T19:53:03.825Z,20.30
2019-04-25T19:55:36.065Z,19.23
2019-04-25T19:58:08.368Z,19.83
2019-04-25T20:00:41.594Z,19.70
2019-04-25T20:03:19.429Z,18.97
2019-04-25T20:06:10.939Z,17.80
2019-04-25T20:08:59.390Z,18.07
2019-04-25T20:11:42.756Z,18.10
2019-04-25T20:14:14.927Z,18.10
2019-04-25T20:16:47.676Z,20.83
2019-04-25T20:19:19.389Z,20.10
2019-04-25T20:21:52.047Z,19.33
2019-04-25T20:24:24.559Z,19.30
2019-04-25T20:26:56.018Z,19.67
2019-04-25T20:29:27.989Z,18.83
2019-04-25T20:32:00.791Z,18.47
2019-04-25T20:34:32.423Z,18.33
2019-04-25T20:37:04.500Z,18.63
2019-04-25T20:39:36.620Z,18.63
2019-04-25T20:42:08.779Z,18.73
2019-04-25T20:44:40.126Z,18.63
2019-04-25T20:47:11.269Z,18.77
2019-04-25T20:49:42.191Z,18.48
2019-04-25T20:52:13.574Z,18.70
2019-04-25T20:54:45.194Z,19.33
2019-04-25T20:57:15.809Z,17.10
2019-04-25T20:59:48.065Z,19.07
2019-04-25T21:02:19.398Z,19.27
2019-04-25T21:04:52.182Z,18.07
2019-04-25T21:07:24.546Z,19.37
2019-04-25T21:09:56.334Z,19.43
2019-04-25T21:12:28.391Z,19.33
2019-04-25T21:15:21.489Z,18.73
2019-04-25T21:18:11.061Z,19.40
2019-04-25T21:20:43.222Z,18.63
2019-04-25T21:23:14.169Z,18.27
2019-04-25T21:25:45.290Z,17.23
2019-04-25T21:28:17.268Z,21.57
2019-04-25T21:30:51.250Z,18.55
2019-04-25T21:33:23.345Z,19.70
2019-04-25T21:35:58.612Z,20.00
2019-04-25T21:38:31.265Z,20.50
2019-04-25T21:41:24.529Z,19.07
2019-04-25T21:44:05.601Z,18.70
2019-04-25T21:46:37.678Z,17.53
2019-04-25T21:49:11.750Z,16.10
2019-04-25T21:51:43.257Z,17.30
2019-04-25T21:54:14.298Z,18.57
2019-04-25T21:56:46.403Z,18.67
2019-04-25T21:59:18.113Z,20.33
2019-04-25T22:02:02.609Z,18.83
2019-04-25T22:04:39.673Z,18.97
2019-04-25T22:07:17.485Z,19.77
2019-04-25T22:09:55.453Z,19.63
2019-04-25T22:12:26.679Z,19.43
2019-04-25T22:14:59.924Z,18.57
2019-04-25T22:17:32.575Z,18.40
2019-04-25T22:20:06.342Z,19.07
2019-04-25T22:22:38.405Z,20.07
2019-04-25T22:25:10.207Z,17.93
2019-04-25T22:27:41.841Z,18.63
2019-04-25T22:30:15.801Z,18.53
2019-04-25T22:32:59.608Z,18.77
2019-04-25T22:35:37.983Z,19.17
2019-04-25T22:38:11.510Z,17.63
2019-04-25T22:40:43.476Z,17.77
2019-04-25T22:43:18.383Z,17.30
2019-04-25T22:45:50.260Z,18.47
2019-04-25T22:48:46.741Z,19.03
2019-04-25T22:51:19.357Z,19.03
2019-04-25T22:53:51.392Z,18.73
2019-04-25T22:56:23.391Z,18.80
2019-04-25T22:59:09.714Z,16.93
2019-04-25T23:02:03.493Z,19.47
2019-04-25T23:05:05.529Z,16.43
2019-04-25T23:07:31.965Z,19.67
2019-04-25T23:10:04.414Z,18.23
2019-04-25T23:12:36.827Z,18.43
2019-04-25T23:15:09.474Z,18.60
2019-04-25T23:17:42.754Z,19.13
2019-04-25T23:20:16.114Z,18.90
2019-04-25T23:22:49.101Z,18.97
2019-04-25T23:25:26.448Z,19.17
2019-04-25T23:28:18.038Z,18.73
2019-04-25T23:31:08.273Z,18.93
2019-04-25T23:33:39.688Z,17.90
2019-04-25T23:36:13.160Z,18.50
2019-04-25T23:38:45.392Z,18.90
2019-04-25T23:41:16.991Z,19.40
2019-04-25T23:43:49.070Z,20.17
2019-04-25T23:46:21.146Z,18.27
2019-04-25T23:48:53.439Z,19.80
2019-04-25T23:51:26.196Z,19.30
2019-04-25T23:53:57.954Z,18.63
2019-04-25T23:56:29.871Z,18.43
2019-04-25T23:59:02.310Z,20.10
